Time;durP1;ratioP1;P1;durP2;ratioP2;P2;SDS_P1;SDS_P2;PMS_P1;PMS_P2;Temp;Humidity;BMP_temperature;BMP_pressure;BME280_temperature;BME280_humidity;BME280_pressure;Samples;Min_cycle;Max_cycle;Signal;HPM_P1;HPM_P2
2022/10/04 00:02:15;;;;;;;22.17;8.70;;;;;;;;;;5007853;28;93061;-73
2022/10/04 00:05:04;;;;;;;15.73;8.35;;;;;;;;;;4993918;28;96636;-73
2022/10/04 00:07:44;;;;;;;14.93;8.27;;;;;;;;;;4996419;28;93311;-73
2022/10/04 00:10:17;;;;;;;13.10;8.25;;;;;;;;;;4996121;28;92746;-74
2022/10/04 00:12:51;;;;;;;14.52;8.90;;;;;;;;;;4995470;28;94319;-73
2022/10/04 00:15:19;;;;;;;16.80;8.55;;;;;;;;;;4997607;28;93403;-73
2022/10/04 00:17:58;;;;;;;21.80;8.48;;;;;;;;;;5015890;28;92505;-73
2022/10/04 00:20:43;;;;;;;22.65;9.57;;;;;;;;;;5015395;28;93933;-73
2022/10/04 00:23:21;;;;;;;25.10;9.23;;;;;;;;;;5005027;28;93367;-74
2022/10/04 00:25:48;;;;;;;24.75;9.18;;;;;;;;;;4998386;28;92414;-73
2022/10/04 00:28:20;;;;;;;21.75;9.55;;;;;;;;;;4995003;28;93550;-73
2022/10/04 00:31:05;;;;;;;15.80;8.75;;;;;;;;;;4994402;28;94947;-73
2022/10/04 00:33:38;;;;;;;18.90;8.75;;;;;;;;;;5007306;28;95679;-73
2022/10/04 00:36:22;;;;;;;20.40;9.32;;;;;;;;;;5015387;28;94049;-73
2022/10/04 00:39:21;;;;;;;19.45;8.98;;;;;;;;;;5015811;28;92584;-73
2022/10/04 00:41:48;;;;;;;17.88;9.85;;;;;;;;;;4991271;28;92355;-73
2022/10/04 00:44:20;;;;;;;20.85;10.30;;;;;;;;;;5015078;28;94218;-73
2022/10/04 00:46:47;;;;;;;;;;;;;;;;;;5007101;28;92522;-73
2022/10/04 00:49:15;;;;;;;21.08;10.57;;;;;;;;;;4997192;28;123772;-73
2022/10/04 00:51:53;;;;;;;18.65;10.57;;;;;;;;;;5014929;28;92472;-73
2022/10/04 00:54:22;;;;;;;20.63;10.52;;;;;;;;;;5013046;28;93249;-73
2022/10/04 00:56:54;;;;;;;19.65;10.55;;;;;;;;;;5012999;28;96536;-73
2022/10/04 00:59:20;;;;;;;17.77;10.60;;;;;;;;;;5014194;28;92388;-73
2022/10/04 01:01:49;;;;;;;21.75;10.85;;;;;;;;;;5013729;28;94055;-73
2022/10/04 01:04:36;;;;;;;22.58;12.10;;;;;;;;;;5014304;28;94227;-73
2022/10/04 01:07:03;;;;;;;18.38;11.30;;;;;;;;;;5013154;28;92802;-73
2022/10/04 01:09:32;;;;;;;25.23;12.45;;;;;;;;;;4997625;28;92400;-73
2022/10/04 01:12:04;;;;;;;22.52;11.55;;;;;;;;;;4994307;28;92597;-73
2022/10/04 01:14:39;;;;;;;16.58;10.95;;;;;;;;;;4995250;28;93989;-73
2022/10/04 01:17:06;;;;;;;28.30;11.63;;;;;;;;;;4993436;28;92985;-73
2022/10/04 01:19:33;;;;;;;20.85;11.68;;;;;;;;;;4994646;28;92510;-73
2022/10/04 01:21:59;;;;;;;24.10;12.20;;;;;;;;;;4991600;28;94929;-73
2022/10/04 01:24:31;;;;;;;20.35;11.20;;;;;;;;;;4996754;28;94274;-73
2022/10/04 01:26:59;;;;;;;24.60;11.43;;;;;;;;;;4994292;28;92453;-73
2022/10/04 01:29:27;;;;;;;18.67;10.82;;;;;;;;;;4993657;28;93043;-73
2022/10/04 01:32:00;;;;;;;19.00;11.20;;;;;;;;;;4997430;28;93288;-73
2022/10/04 01:34:26;;;;;;;;;;;;;;;;;;4994615;28;94245;-73
2022/10/04 01:36:54;;;;;;;22.15;11.57;;;;;;;;;;4994127;28;124476;-73
2022/10/04 01:39:22;;;;;;;21.48;12.95;;;;;;;;;;4993922;28;91823;-73
2022/10/04 01:41:48;;;;;;;21.90;12.40;;;;;;;;;;4994444;28;92564;-73
2022/10/04 01:44:22;;;;;;;20.20;12.15;;;;;;;;;;4992948;28;93381;-73
2022/10/04 01:46:48;;;;;;;20.10;13.00;;;;;;;;;;4992818;28;94800;-73
2022/10/04 01:49:19;;;;;;;15.93;12.45;;;;;;;;;;4993434;28;96373;-73
2022/10/04 01:51:53;;;;;;;24.42;13.55;;;;;;;;;;4993294;28;93521;-73
2022/10/04 01:54:22;;;;;;;25.30;12.43;;;;;;;;;;4996737;28;92457;-73
2022/10/04 01:56:51;;;;;;;19.55;11.93;;;;;;;;;;4993669;28;93179;-73
2022/10/04 01:59:20;;;;;;;22.95;13.90;;;;;;;;;;4992173;28;92469;-73
2022/10/04 02:01:51;;;;;;;23.25;13.75;;;;;;;;;;4993589;28;92921;-73
2022/10/04 02:04:19;;;;;;;31.65;13.85;;;;;;;;;;4993787;28;93269;-73
2022/10/04 02:06:51;;;;;;;20.73;12.73;;;;;;;;;;4997476;28;92441;-73
2022/10/04 02:09:19;;;;;;;23.95;12.52;;;;;;;;;;4997141;28;94128;-73
2022/10/04 02:11:49;;;;;;;22.17;13.43;;;;;;;;;;4995108;28;95675;-73
2022/10/04 02:14:17;;;;;;;21.25;13.40;;;;;;;;;;4997578;28;93862;-73
2022/10/04 02:16:45;;;;;;;26.17;13.32;;;;;;;;;;5000321;28;93164;-73
2022/10/04 02:19:13;;;;;;;25.88;13.80;;;;;;;;;;4996153;28;92515;-73
2022/10/04 02:21:40;;;;;;;26.15;13.82;;;;;;;;;;4997204;28;93174;-73
2022/10/04 02:24:07;;;;;;;20.17;13.75;;;;;;;;;;4996023;28;92377;-73
2022/10/04 02:26:34;;;;;;;27.45;13.00;;;;;;;;;;4996460;28;92756;-73
2022/10/04 02:29:00;;;;;;;24.60;13.98;;;;;;;;;;4997380;28;93126;-73
2022/10/04 02:34:12;;;;;;;26.77;13.20;;;;;;;;;;4996068;28;92975;-73
2022/10/04 02:36:39;;;;;;;26.77;12.95;;;;;;;;;;4995532;28;94764;-73
2022/10/04 02:39:14;;;;;;;20.85;12.88;;;;;;;;;;4999485;28;94148;-74
2022/10/04 02:41:47;;;;;;;16.75;12.35;;;;;;;;;;4996568;28;94394;-74
2022/10/04 02:44:16;;;;;;;17.15;12.13;;;;;;;;;;4996551;28;94016;-73
2022/10/04 02:46:45;;;;;;;22.98;13.07;;;;;;;;;;4995740;28;92394;-73
2022/10/04 02:49:17;;;;;;;24.02;12.50;;;;;;;;;;4997279;28;94010;-73
2022/10/04 02:51:56;;;;;;;19.58;13.43;;;;;;;;;;4996495;28;94118;-74
2022/10/04 02:54:29;;;;;;;21.45;13.63;;;;;;;;;;4996703;28;91739;-73
2022/10/04 02:56:56;;;;;;;26.10;14.52;;;;;;;;;;4996928;28;92374;-72
2022/10/04 02:59:23;;;;;;;20.20;13.90;;;;;;;;;;4999195;28;94213;-73
2022/10/04 03:01:52;;;;;;;25.45;14.90;;;;;;;;;;4994307;28;94991;-73
2022/10/04 03:04:22;;;;;;;22.45;15.68;;;;;;;;;;4995939;28;94562;-73
2022/10/04 03:06:49;;;;;;;24.48;15.50;;;;;;;;;;4996932;28;92482;-73
2022/10/04 03:09:16;;;;;;;25.88;17.05;;;;;;;;;;4995386;28;93887;-73
2022/10/04 03:11:43;;;;;;;25.48;16.92;;;;;;;;;;4996378;28;93302;-73
2022/10/04 03:14:15;;;;;;;30.05;18.23;;;;;;;;;;4996037;28;92473;-73
2022/10/04 03:16:43;;;;;;;28.30;17.30;;;;;;;;;;4995811;28;93949;-73
2022/10/04 03:19:10;;;;;;;27.42;17.10;;;;;;;;;;4996418;28;93252;-73
2022/10/04 03:21:38;;;;;;;28.38;18.38;;;;;;;;;;4998264;28;92361;-73
2022/10/04 03:24:05;;;;;;;27.83;18.23;;;;;;;;;;4995823;28;94164;-73
2022/10/04 03:26:32;;;;;;;30.65;19.40;;;;;;;;;;4994926;28;94806;-73
2022/10/04 03:28:59;;;;;;;26.85;18.00;;;;;;;;;;4995062;28;96259;-73
2022/10/04 03:31:26;;;;;;;31.38;18.52;;;;;;;;;;4996107;28;93254;-73
2022/10/04 03:33:54;;;;;;;31.77;19.45;;;;;;;;;;4996217;28;92494;-73
2022/10/04 03:36:22;;;;;;;29.45;18.65;;;;;;;;;;4994105;28;94586;-73
2022/10/04 03:38:51;;;;;;;34.78;19.27;;;;;;;;;;4992042;28;94347;-73
2022/10/04 03:41:18;;;;;;;22.95;18.40;;;;;;;;;;5014473;28;92690;-72
2022/10/04 03:43:45;;;;;;;30.73;19.00;;;;;;;;;;5005769;28;94211;-73
2022/10/04 03:46:13;;;;;;;30.30;20.38;;;;;;;;;;4995815;28;92925;-73
2022/10/04 03:48:39;;;;;;;27.48;19.65;;;;;;;;;;4996044;28;94303;-73
2022/10/04 03:51:09;;;;;;;25.67;20.33;;;;;;;;;;4992996;28;96572;-73
2022/10/04 03:53:41;;;;;;;27.38;19.55;;;;;;;;;;4996286;28;92443;-73
2022/10/04 03:56:11;;;;;;;35.83;19.08;;;;;;;;;;4982983;28;94104;-72
2022/10/04 03:58:37;;;;;;;36.92;20.75;;;;;;;;;;4993337;28;94145;-73
2022/10/04 04:01:13;;;;;;;38.70;20.88;;;;;;;;;;4995488;28;92514;-73
2022/10/04 04:04:06;;;;;;;29.15;20.70;;;;;;;;;;4995767;28;92819;-72
2022/10/04 04:06:36;;;;;;;26.60;18.60;;;;;;;;;;4997600;28;94248;-74
2022/10/04 04:09:03;;;;;;;32.15;20.50;;;;;;;;;;4995988;28;93830;-74
2022/10/04 04:11:30;;;;;;;30.75;20.13;;;;;;;;;;4994669;28;94249;-74
2022/10/04 04:14:04;;;;;;;38.10;20.50;;;;;;;;;;4995732;28;92538;-74
2022/10/04 04:16:31;;;;;;;23.13;19.50;;;;;;;;;;4994055;28;94731;-74
2022/10/04 04:19:01;;;;;;;38.35;20.85;;;;;;;;;;4994292;28;94193;-74
2022/10/04 04:21:28;;;;;;;31.17;18.92;;;;;;;;;;4995512;28;92428;-73
2022/10/04 04:23:57;;;;;;;29.35;21.00;;;;;;;;;;4995076;28;93977;-73
2022/10/04 04:26:26;;;;;;;28.83;19.98;;;;;;;;;;4994164;28;94221;-74
2022/10/04 04:28:55;;;;;;;29.63;19.73;;;;;;;;;;4997703;28;92431;-73
2022/10/04 04:31:24;;;;;;;31.35;21.98;;;;;;;;;;5002180;28;94346;-73
2022/10/04 04:33:55;;;;;;;32.28;21.90;;;;;;;;;;4994953;28;91765;-73
2022/10/04 04:36:21;;;;;;;27.17;21.70;;;;;;;;;;4995241;28;93758;-73
2022/10/04 04:41:35;;;;;;;28.92;21.88;;;;;;;;;;4993773;28;94815;-73
2022/10/04 04:44:02;;;;;;;35.35;21.27;;;;;;;;;;4994799;28;95494;-73
2022/10/04 04:46:29;;;;;;;29.75;21.65;;;;;;;;;;4993956;28;94131;-73
2022/10/04 04:49:01;;;;;;;30.17;22.25;;;;;;;;;;4995682;28;92903;-73
2022/10/04 04:51:28;;;;;;;30.13;23.03;;;;;;;;;;4997700;28;94206;-73
2022/10/04 04:53:55;;;;;;;31.52;22.98;;;;;;;;;;4994233;28;92349;-73
2022/10/04 04:56:24;;;;;;;31.77;20.98;;;;;;;;;;4995117;28;93995;-73
2022/10/04 04:58:51;;;;;;;27.00;20.85;;;;;;;;;;4994743;28;92845;-73
2022/10/04 05:01:40;;;;;;;32.42;21.52;;;;;;;;;;4993397;28;92798;-73
2022/10/04 05:04:07;;;;;;;32.35;21.80;;;;;;;;;;4994217;28;93155;-73
2022/10/04 05:06:34;;;;;;;35.47;23.63;;;;;;;;;;5012335;28;95810;-73
2022/10/04 05:09:01;;;;;;;29.17;20.95;;;;;;;;;;5013832;28;93577;-73
2022/10/04 05:11:36;;;;;;;32.08;22.25;;;;;;;;;;5017377;28;93893;-73
2022/10/04 05:14:08;;;;;;;28.83;21.23;;;;;;;;;;5014007;28;92393;-73
2022/10/04 05:16:39;;;;;;;41.27;22.93;;;;;;;;;;5014738;28;94150;-73
2022/10/04 05:19:07;;;;;;;35.40;22.92;;;;;;;;;;5014099;28;94361;-73
2022/10/04 05:21:34;;;;;;;26.52;22.55;;;;;;;;;;5009031;28;92662;-73
2022/10/04 05:24:12;;;;;;;37.35;22.70;;;;;;;;;;5000264;28;93782;-72
2022/10/04 05:26:40;;;;;;;33.83;23.40;;;;;;;;;;4994556;28;93693;-73
2022/10/04 05:29:14;;;;;;;31.60;21.77;;;;;;;;;;4993529;28;92450;-73
2022/10/04 05:31:51;;;;;;;39.30;22.30;;;;;;;;;;4992798;28;94826;-73
2022/10/04 05:34:28;;;;;;;32.05;21.70;;;;;;;;;;4996792;28;93049;-73
2022/10/04 05:37:05;;;;;;;27.52;21.15;;;;;;;;;;4993658;28;94110;-73
2022/10/04 05:39:37;;;;;;;37.35;21.38;;;;;;;;;;5005254;28;94152;-73
2022/10/04 05:42:05;;;;;;;24.90;20.70;;;;;;;;;;5014154;28;92379;-73
2022/10/04 05:44:35;;;;;;;35.03;22.42;;;;;;;;;;5013505;28;94131;-73
2022/10/04 05:47:04;;;;;;;37.03;23.23;;;;;;;;;;5013827;28;94057;-73
2022/10/04 05:49:39;;;;;;;28.75;22.02;;;;;;;;;;5014088;28;92594;-72
2022/10/04 05:52:12;;;;;;;35.60;22.33;;;;;;;;;;4998981;28;92411;-73
2022/10/04 05:54:38;;;;;;;35.30;21.77;;;;;;;;;;4993975;28;94325;-72
2022/10/04 05:57:16;;;;;;;35.03;20.15;;;;;;;;;;5011217;28;95486;-72
2022/10/04 05:59:58;;;;;;;28.50;20.80;;;;;;;;;;5007912;28;94090;-73
2022/10/04 06:02:46;;;;;;;32.10;20.92;;;;;;;;;;4981713;28;93106;-73
2022/10/04 06:05:16;;;;;;;32.33;20.88;;;;;;;;;;4989844;28;94447;-73
2022/10/04 06:07:47;;;;;;;29.48;21.00;;;;;;;;;;4993948;28;95732;-73
2022/10/04 06:10:32;;;;;;;27.45;20.98;;;;;;;;;;4992709;28;93224;-73
2022/10/04 06:13:09;;;;;;;30.80;21.85;;;;;;;;;;4992499;28;94669;-73
2022/10/04 06:16:01;;;;;;;31.90;21.02;;;;;;;;;;4975143;28;92472;-73
2022/10/04 06:18:38;;;;;;;30.43;21.10;;;;;;;;;;4988465;28;92956;-73
2022/10/04 06:21:13;;;;;;;25.73;20.67;;;;;;;;;;4995067;28;93148;-73
2022/10/04 06:23:49;;;;;;;31.63;22.02;;;;;;;;;;4991742;28;94921;-72
2022/10/04 06:26:18;;;;;;;35.08;21.08;;;;;;;;;;4989346;28;96244;-72
2022/10/04 06:28:47;;;;;;;27.75;20.05;;;;;;;;;;4993565;28;94080;-72
2022/10/04 06:31:25;;;;;;;34.42;21.58;;;;;;;;;;5010558;28;92354;-73
2022/10/04 06:33:54;;;;;;;32.38;21.42;;;;;;;;;;4993625;28;93943;-72
2022/10/04 06:36:27;;;;;;;32.85;22.13;;;;;;;;;;4990692;28;92529;-72
2022/10/04 06:38:53;;;;;;;32.60;20.27;;;;;;;;;;4990040;28;94209;-72
2022/10/04 06:41:38;;;;;;;36.45;22.75;;;;;;;;;;4990941;28;93941;-73
2022/10/04 06:44:21;;;;;;;31.83;21.02;;;;;;;;;;4995444;28;93207;-73
2022/10/04 06:47:13;;;;;;;26.45;20.35;;;;;;;;;;4997522;28;93613;-74
2022/10/04 06:49:58;;;;;;;33.53;20.55;;;;;;;;;;4963047;28;95992;-74
2022/10/04 06:52:27;;;;;;;28.65;21.42;;;;;;;;;;4995423;28;92495;-73
2022/10/04 06:55:08;;;;;;;24.05;18.10;;;;;;;;;;4994643;28;94077;-73
2022/10/04 06:57:38;;;;;;;24.88;18.13;;;;;;;;;;4995635;28;94230;-73
2022/10/04 07:00:11;;;;;;;26.65;18.60;;;;;;;;;;4993964;28;92463;-73
2022/10/04 07:02:53;;;;;;;23.17;16.90;;;;;;;;;;4989301;28;95014;-73
2022/10/04 07:05:29;;;;;;;24.75;16.90;;;;;;;;;;4995083;28;94383;-74
2022/10/04 07:08:08;;;;;;;26.42;16.70;;;;;;;;;;4994505;28;91767;-73
2022/10/04 07:10:37;;;;;;;27.63;15.85;;;;;;;;;;4990581;28;94049;-73
2022/10/04 07:13:13;;;;;;;19.05;14.48;;;;;;;;;;4994635;28;94420;-73
2022/10/04 07:15:48;;;;;;;28.25;16.13;;;;;;;;;;4994257;28;94821;-73
2022/10/04 07:18:18;;;;;;;22.38;14.98;;;;;;;;;;4981406;28;94323;-73
2022/10/04 07:20:46;;;;;;;25.90;14.95;;;;;;;;;;4994669;28;92823;-72
2022/10/04 07:23:15;;;;;;;15.23;13.05;;;;;;;;;;4988952;28;94240;-73
2022/10/04 07:25:47;;;;;;;21.77;14.18;;;;;;;;;;4991741;28;94144;-73
2022/10/04 07:31:10;;;;;;;17.00;12.75;;;;;;;;;;4994496;28;94327;-73
2022/10/04 07:33:48;;;;;;;19.48;13.48;;;;;;;;;;4978234;28;91752;-74
2022/10/04 07:36:17;;;;;;;18.27;13.35;;;;;;;;;;4995255;28;93179;-72
2022/10/04 07:38:49;;;;;;;23.83;12.98;;;;;;;;;;4995518;28;94184;-73
2022/10/04 07:41:36;;;;;;;16.02;12.48;;;;;;;;;;4988196;28;96211;-73
2022/10/04 07:44:04;;;;;;;15.98;12.77;;;;;;;;;;4987278;28;97530;-74
2022/10/04 07:46:49;;;;;;;22.65;13.38;;;;;;;;;;4985206;28;96485;-74
2022/10/04 07:49:18;;;;;;;19.80;12.55;;;;;;;;;;4979391;28;92459;-72
2022/10/04 07:51:53;;;;;;;15.52;12.10;;;;;;;;;;4998439;28;93840;-74
2022/10/04 07:54:27;;;;;;;13.50;11.18;;;;;;;;;;4996118;28;92517;-73
2022/10/04 07:56:56;;;;;;;22.77;11.15;;;;;;;;;;4994898;28;94187;-74
2022/10/04 07:59:37;;;;;;;29.58;10.13;;;;;;;;;;4993225;28;93577;-75
2022/10/04 08:02:12;;;;;;;28.73;10.35;;;;;;;;;;4993033;28;92275;-74
2022/10/04 08:04:51;;;;;;;19.90;10.27;;;;;;;;;;4994952;28;92881;-73
2022/10/04 08:07:21;;;;;;;18.45;10.48;;;;;;;;;;4990347;28;97051;-73
2022/10/04 08:10:12;;;;;;;18.75;10.13;;;;;;;;;;4994609;28;92604;-73
2022/10/04 08:12:47;;;;;;;15.60;10.00;;;;;;;;;;4993438;28;94135;-73
2022/10/04 08:15:24;;;;;;;11.38;9.70;;;;;;;;;;4996960;28;93199;-74
2022/10/04 08:18:09;;;;;;;13.32;9.38;;;;;;;;;;4995467;28;93884;-73
2022/10/04 08:20:35;;;;;;;19.63;9.85;;;;;;;;;;4994869;28;94125;-74
2022/10/04 08:23:20;;;;;;;16.25;10.05;;;;;;;;;;4995208;28;92541;-74
2022/10/04 08:26:06;;;;;;;27.80;10.10;;;;;;;;;;4995107;28;93851;-73
2022/10/04 08:31:46;;;;;;;10.57;8.90;;;;;;;;;;4975717;28;92438;-73
2022/10/04 08:34:31;;;;;;;13.90;8.95;;;;;;;;;;4989898;28;94769;-73
2022/10/04 08:37:16;;;;;;;19.67;9.02;;;;;;;;;;4995901;28;93641;-73
2022/10/04 08:39:52;;;;;;;14.07;8.40;;;;;;;;;;4994248;28;92491;-73
2022/10/04 08:42:40;;;;;;;11.68;7.30;;;;;;;;;;4986475;28;94363;-73
2022/10/04 08:45:15;;;;;;;15.30;8.30;;;;;;;;;;4995021;28;93117;-74
2022/10/04 08:47:43;;;;;;;11.57;7.47;;;;;;;;;;4995820;28;93455;-73
2022/10/04 08:50:12;;;;;;;12.05;7.47;;;;;;;;;;4989967;28;93440;-73
2022/10/04 08:52:57;;;;;;;12.02;7.60;;;;;;;;;;4987699;28;92400;-73
2022/10/04 08:55:42;;;;;;;23.23;8.00;;;;;;;;;;4986519;28;93229;-73
2022/10/04 08:58:09;;;;;;;13.18;7.78;;;;;;;;;;4994139;28;94360;-73
2022/10/04 09:00:45;;;;;;;13.15;7.40;;;;;;;;;;4992894;28;94955;-73
2022/10/04 09:03:25;;;;;;;9.75;7.38;;;;;;;;;;4996996;28;99070;-73
2022/10/04 09:05:59;;;;;;;15.48;8.05;;;;;;;;;;4995665;28;92510;-73
2022/10/04 09:08:44;;;;;;;10.25;6.93;;;;;;;;;;4991905;28;93129;-74
2022/10/04 09:11:25;;;;;;;13.60;6.88;;;;;;;;;;4982819;28;94448;-73
2022/10/04 09:14:07;;;;;;;22.63;8.18;;;;;;;;;;4994605;28;92778;-73
2022/10/04 09:16:46;;;;;;;16.00;7.47;;;;;;;;;;4995781;28;94084;-73
2022/10/04 09:19:15;;;;;;;11.52;7.05;;;;;;;;;;4993229;28;93836;-73
2022/10/04 09:22:01;;;;;;;8.38;6.88;;;;;;;;;;4991095;28;92840;-73
2022/10/04 09:24:38;;;;;;;10.25;7.32;;;;;;;;;;4996772;28;93175;-73
2022/10/04 09:27:22;;;;;;;19.13;8.52;;;;;;;;;;4992419;28;94822;-73
2022/10/04 09:30:15;;;;;;;12.43;7.20;;;;;;;;;;4994866;28;96547;-73
2022/10/04 09:32:58;;;;;;;12.75;7.30;;;;;;;;;;4993958;28;94533;-73
2022/10/04 09:35:32;;;;;;;12.77;7.03;;;;;;;;;;4993073;28;92349;-71
2022/10/04 09:38:14;;;;;;;12.10;6.40;;;;;;;;;;4986596;28;93361;-72
2022/10/04 09:40:54;;;;;;;18.50;7.45;;;;;;;;;;4990922;28;96055;-72
2022/10/04 09:43:40;;;;;;;11.50;6.63;;;;;;;;;;4989525;28;92746;-72
2022/10/04 09:46:28;;;;;;;13.57;7.05;;;;;;;;;;4995483;28;93991;-72
2022/10/04 09:49:12;;;;;;;9.88;6.90;;;;;;;;;;4994847;28;94850;-71
2022/10/04 09:51:58;;;;;;;21.23;7.15;;;;;;;;;;4995008;28;94088;-72
2022/10/04 09:54:44;;;;;;;11.88;6.20;;;;;;;;;;4988442;28;96683;-72
2022/10/04 09:57:31;;;;;;;10.85;7.32;;;;;;;;;;4992550;28;92529;-72
2022/10/04 10:00:08;;;;;;;14.75;6.72;;;;;;;;;;4984432;28;93955;-72
2022/10/04 10:03:00;;;;;;;9.27;7.07;;;;;;;;;;4991070;28;92495;-72
2022/10/04 10:06:06;;;;;;;11.27;7.18;;;;;;;;;;4988866;28;92453;-72
2022/10/04 10:08:43;;;;;;;11.15;6.95;;;;;;;;;;4937939;28;92645;-72
2022/10/04 10:14:12;;;;;;;15.18;8.20;;;;;;;;;;4972097;28;91904;-72
2022/10/04 10:16:59;;;;;;;10.30;7.03;;;;;;;;;;4992003;28;93294;-72
2022/10/04 10:19:36;;;;;;;12.23;7.40;;;;;;;;;;4990688;28;93129;-72
2022/10/04 10:22:13;;;;;;;8.32;6.72;;;;;;;;;;4980765;28;94846;-72
2022/10/04 10:24:51;;;;;;;16.15;7.65;;;;;;;;;;4991039;28;94176;-73
2022/10/04 10:27:36;;;;;;;14.20;7.38;;;;;;;;;;4989951;28;94398;-72
2022/10/04 10:30:03;;;;;;;14.98;7.55;;;;;;;;;;4987012;28;93912;-71
2022/10/04 10:32:43;;;;;;;13.15;6.95;;;;;;;;;;4994108;28;94476;-71
2022/10/04 10:35:23;;;;;;;13.02;5.68;;;;;;;;;;4988498;28;92334;-71
2022/10/04 10:38:05;;;;;;;14.25;6.38;;;;;;;;;;4998607;28;93966;-71
2022/10/04 10:40:44;;;;;;;17.67;6.65;;;;;;;;;;4978424;28;91688;-71
2022/10/04 10:43:29;;;;;;;11.70;6.78;;;;;;;;;;4989105;28;93030;-71
2022/10/04 10:46:03;;;;;;;11.82;6.57;;;;;;;;;;4981297;28;93992;-71
2022/10/04 10:48:51;;;;;;;14.13;5.95;;;;;;;;;;4985147;28;95031;-71
2022/10/04 10:51:34;;;;;;;15.85;6.53;;;;;;;;;;4997292;28;96352;-71
2022/10/04 10:54:04;;;;;;;15.35;6.63;;;;;;;;;;4992799;28;93238;-71
2022/10/04 10:56:45;;;;;;;11.85;6.53;;;;;;;;;;4977787;28;92978;-71
2022/10/04 10:59:21;;;;;;;12.38;6.28;;;;;;;;;;4978644;28;93002;-71
2022/10/04 11:02:08;;;;;;;11.32;6.40;;;;;;;;;;4997920;28;94078;-71
2022/10/04 11:04:44;;;;;;;10.00;6.25;;;;;;;;;;4997110;28;94035;-72
2022/10/04 11:07:29;;;;;;;10.82;4.90;;;;;;;;;;4994860;28;93235;-73
2022/10/04 11:10:05;;;;;;;12.10;5.75;;;;;;;;;;4997562;28;92283;-72
2022/10/04 11:12:37;;;;;;;10.23;5.20;;;;;;;;;;4998509;28;93868;-72
2022/10/04 11:15:07;;;;;;;7.60;5.07;;;;;;;;;;4994149;28;96469;-72
2022/10/04 11:17:53;;;;;;;10.38;5.68;;;;;;;;;;4994988;28;93204;-71
2022/10/04 11:20:31;;;;;;;7.82;5.40;;;;;;;;;;4994787;28;93930;-71
2022/10/04 11:23:10;;;;;;;14.25;5.07;;;;;;;;;;4996568;28;94628;-74
2022/10/04 11:25:42;;;;;;;9.60;4.88;;;;;;;;;;4996854;28;92502;-72
2022/10/04 11:28:29;;;;;;;7.68;4.95;;;;;;;;;;4994150;28;93245;-74
2022/10/04 11:31:17;;;;;;;8.35;5.28;;;;;;;;;;4996982;28;92422;-75
2022/10/04 11:33:54;;;;;;;9.77;4.70;;;;;;;;;;4996478;28;93119;-74
2022/10/04 11:36:32;;;;;;;7.22;4.80;;;;;;;;;;4996280;28;95284;-74
2022/10/04 11:39:04;;;;;;;8.80;4.32;;;;;;;;;;4996101;28;92409;-74
2022/10/04 11:41:32;;;;;;;7.53;4.28;;;;;;;;;;4994830;28;94751;-73
2022/10/04 11:44:01;;;;;;;7.18;4.30;;;;;;;;;;4996541;28;92250;-74
2022/10/04 11:46:51;;;;;;;9.05;4.43;;;;;;;;;;4999995;28;92291;-74
2022/10/04 11:49:18;;;;;;;10.32;4.30;;;;;;;;;;4994465;28;94287;-74
2022/10/04 11:52:11;;;;;;;9.57;3.55;;;;;;;;;;4984502;28;92387;-74
2022/10/04 11:54:38;;;;;;;5.40;3.90;;;;;;;;;;4985760;28;93848;-74
2022/10/04 11:57:17;;;;;;;8.98;4.00;;;;;;;;;;4995132;28;94358;-74
2022/10/04 11:59:48;;;;;;;10.98;4.70;;;;;;;;;;4996725;28;91741;-74
2022/10/04 12:02:33;;;;;;;7.60;4.07;;;;;;;;;;4995817;28;93384;-73
2022/10/04 12:05:14;;;;;;;12.02;4.82;;;;;;;;;;4988183;28;94027;-74
2022/10/04 12:07:40;;;;;;;10.23;4.80;;;;;;;;;;4996940;28;94929;-74
2022/10/04 12:10:22;;;;;;;8.93;4.72;;;;;;;;;;4998118;28;96888;-73
2022/10/04 12:12:48;;;;;;;7.97;5.05;;;;;;;;;;4998803;28;92395;-74
2022/10/04 12:15:17;;;;;;;7.18;4.57;;;;;;;;;;4998711;28;93144;-73
2022/10/04 12:18:22;;;;;;;9.75;4.55;;;;;;;;;;4997174;28;94222;-74
2022/10/04 12:20:55;;;;;;;9.25;4.88;;;;;;;;;;4975054;28;92549;-73
2022/10/04 12:23:28;;;;;;;7.15;5.47;;;;;;;;;;4972040;28;93673;-73
2022/10/04 12:25:57;;;;;;;6.80;4.85;;;;;;;;;;4992933;28;92412;-73
2022/10/04 12:28:26;;;;;;;9.82;4.47;;;;;;;;;;4997690;28;92462;-73
2022/10/04 12:31:07;;;;;;;10.00;4.25;;;;;;;;;;4995667;28;93756;-73
2022/10/04 12:33:33;;;;;;;9.57;4.25;;;;;;;;;;4977338;28;96977;-73
2022/10/04 12:36:00;;;;;;;10.18;4.28;;;;;;;;;;4993094;28;96238;-73
2022/10/04 12:38:36;;;;;;;10.95;4.90;;;;;;;;;;4996990;28;94167;-73
2022/10/04 12:41:10;;;;;;;9.32;3.85;;;;;;;;;;4996744;28;92439;-74
2022/10/04 12:43:51;;;;;;;6.95;4.05;;;;;;;;;;4995896;28;94170;-73
2022/10/04 12:46:28;;;;;;;11.85;5.10;;;;;;;;;;4997528;28;94195;-73
2022/10/04 12:49:12;;;;;;;7.75;3.88;;;;;;;;;;4998125;28;92387;-74
2022/10/04 12:51:48;;;;;;;8.75;4.05;;;;;;;;;;4998678;28;93785;-73
2022/10/04 12:54:19;;;;;;;4.75;3.28;;;;;;;;;;4995239;28;94111;-73
2022/10/04 12:56:52;;;;;;;5.07;3.03;;;;;;;;;;5002352;28;93744;-72
2022/10/04 12:59:29;;;;;;;9.63;3.83;;;;;;;;;;4994422;28;96594;-73
2022/10/04 13:02:02;;;;;;;6.38;3.80;;;;;;;;;;4996870;28;92425;-73
2022/10/04 13:04:40;;;;;;;5.68;3.40;;;;;;;;;;4995351;28;92399;-73
2022/10/04 13:07:07;;;;;;;4.45;2.92;;;;;;;;;;4997317;28;94151;-72
2022/10/04 13:09:38;;;;;;;7.13;3.75;;;;;;;;;;4996481;28;92388;-73
2022/10/04 13:12:10;;;;;;;8.35;3.50;;;;;;;;;;4997134;28;94105;-73
2022/10/04 13:14:37;;;;;;;3.65;3.25;;;;;;;;;;4994959;28;94368;-73
2022/10/04 13:17:10;;;;;;;9.10;3.50;;;;;;;;;;4999222;28;91755;-73
2022/10/04 13:19:56;;;;;;;;;;;;;;;;;;5000896;28;93236;-73
2022/10/04 13:22:29;;;;;;;8.73;3.72;;;;;;;;;;4997959;28;116905;-73
2022/10/04 13:25:27;;;;;;;5.03;3.50;;;;;;;;;;4973815;28;94784;-74
2022/10/04 13:28:05;;;;;;;8.77;3.88;;;;;;;;;;4991821;28;94140;-73
2022/10/04 13:30:37;;;;;;;11.93;4.18;;;;;;;;;;4998799;28;92534;-73
2022/10/04 13:33:22;;;;;;;4.23;3.53;;;;;;;;;;4997148;28;93055;-72
2022/10/04 13:35:53;;;;;;;6.43;4.20;;;;;;;;;;4990468;28;93745;-73
2022/10/04 13:38:26;;;;;;;8.10;4.80;;;;;;;;;;4995065;28;92835;-73
2022/10/04 13:40:58;;;;;;;11.35;4.35;;;;;;;;;;4998653;28;92954;-73
2022/10/04 13:43:27;;;;;;;7.93;5.10;;;;;;;;;;5001422;28;93226;-73
2022/10/04 13:46:07;;;;;;;6.70;4.30;;;;;;;;;;4996913;28;92548;-73
2022/10/04 13:48:53;;;;;;;8.50;4.30;;;;;;;;;;4974213;28;94262;-73
2022/10/04 13:56:35;;;;;;;9.10;4.05;;;;;;;;;;4995082;28;94945;-73
2022/10/04 13:57:38;;;;;;;6.03;3.97;;;;;;;;;;4998464;28;93448;-73
2022/10/04 14:00:11;;;;;;;6.05;4.07;;;;;;;;;;4997125;28;92494;-73
2022/10/04 14:02:40;;;;;;;8.40;4.43;;;;;;;;;;4994259;28;93787;-73
2022/10/04 14:05:25;;;;;;;8.30;4.63;;;;;;;;;;4999429;28;94180;-73
2022/10/04 14:08:04;;;;;;;6.53;4.68;;;;;;;;;;4995319;28;93958;-73
2022/10/04 14:10:49;;;;;;;6.97;4.05;;;;;;;;;;4997518;28;93355;-73
2022/10/04 14:13:42;;;;;;;8.68;4.22;;;;;;;;;;4997579;28;92462;-73
2022/10/04 14:16:33;;;;;;;12.93;5.18;;;;;;;;;;4994447;28;93036;-74
2022/10/04 14:19:21;;;;;;;13.65;4.75;;;;;;;;;;4973325;28;95789;-73
2022/10/04 14:21:53;;;;;;;13.27;4.63;;;;;;;;;;4997896;28;92904;-73
2022/10/04 14:24:38;;;;;;;9.15;4.40;;;;;;;;;;4996442;28;92982;-73
2022/10/04 14:27:23;;;;;;;11.30;4.25;;;;;;;;;;4997524;28;94083;-73
2022/10/04 14:30:08;;;;;;;8.77;4.60;;;;;;;;;;4998851;28;92636;-73
2022/10/04 14:32:56;;;;;;;8.52;4.60;;;;;;;;;;4981352;28;93492;-73
2022/10/04 14:35:22;;;;;;;8.20;4.78;;;;;;;;;;4995172;28;92487;-73
2022/10/04 14:37:54;;;;;;;5.93;4.32;;;;;;;;;;4996799;28;93231;-73
2022/10/04 14:40:53;;;;;;;7.85;4.10;;;;;;;;;;4995456;28;94441;-73
2022/10/04 14:43:28;;;;;;;14.02;4.30;;;;;;;;;;4982657;28;92613;-74
2022/10/04 14:46:01;;;;;;;8.00;4.85;;;;;;;;;;4992045;28;95644;-73
2022/10/04 14:48:36;;;;;;;6.70;4.78;;;;;;;;;;4994024;28;94124;-72
2022/10/04 14:51:02;;;;;;;7.43;4.82;;;;;;;;;;4986345;28;92514;-73
2022/10/04 14:53:41;;;;;;;15.40;4.63;;;;;;;;;;4990622;28;93976;-73
2022/10/04 14:56:31;;;;;;;8.77;5.18;;;;;;;;;;4988778;28;94028;-73
2022/10/04 14:59:29;;;;;;;9.13;5.05;;;;;;;;;;4983869;28;94610;-73
2022/10/04 15:01:59;;;;;;;9.52;4.68;;;;;;;;;;4966790;28;93227;-72
2022/10/04 15:04:25;;;;;;;9.48;4.80;;;;;;;;;;4990606;28;91713;-72
2022/10/04 15:07:10;;;;;;;6.03;4.50;;;;;;;;;;4993256;28;93023;-72
2022/10/04 15:09:45;;;;;;;10.00;5.10;;;;;;;;;;4991203;28;94303;-74
2022/10/04 15:12:23;;;;;;;8.60;4.05;;;;;;;;;;4993007;28;95119;-73
2022/10/04 15:15:11;;;;;;;7.30;4.65;;;;;;;;;;4996384;28;95349;-73
2022/10/04 15:17:42;;;;;;;9.75;4.70;;;;;;;;;;5003966;28;94144;-73
2022/10/04 15:20:21;;;;;;;8.77;4.28;;;;;;;;;;4993305;28;93944;-73
2022/10/04 15:22:51;;;;;;;6.03;3.90;;;;;;;;;;4987154;28;93318;-73
2022/10/04 15:25:40;;;;;;;5.55;4.35;;;;;;;;;;4995111;28;92572;-75
2022/10/04 15:28:27;;;;;;;5.63;4.30;;;;;;;;;;4990326;28;93265;-73
2022/10/04 15:30:53;;;;;;;9.93;4.05;;;;;;;;;;4995451;28;93498;-73
2022/10/04 15:33:25;;;;;;;12.40;4.88;;;;;;;;;;4995966;28;92858;-74